Time;durP1;ratioP1;P1;durP2;ratioP2;P2;SDS_P1;SDS_P2;PMS_P1;PMS_P2;Temp;Humidity;BMP_temperature;BMP_pressure;BME280_temperature;BME280_humidity;BME280_pressure;Samples;Min_cycle;Max_cycle;Signal;HPM_P1;HPM_P2
2022/09/12 00:00:39;;;;;;;11.30;10.20;;;;;;;;;;5081143;28;20036;-80
2022/09/12 00:03:05;;;;;;;11.52;10.43;;;;;;;;;;5084456;28;20043;-80
2022/09/12 00:05:32;;;;;;;11.02;10.02;;;;;;;;;;5065504;28;20097;-81
2022/09/12 00:07:58;;;;;;;11.02;10.05;;;;;;;;;;5066067;28;20067;-80
2022/09/12 00:10:24;;;;;;;13.07;10.60;;;;;;;;;;5088607;28;20036;-80
2022/09/12 00:12:51;;;;;;;12.50;11.40;;;;;;;;;;5090835;28;20052;-80
2022/09/12 00:15:17;;;;;;;11.88;10.77;;;;;;;;;;5085700;28;20434;-80
2022/09/12 00:17:43;;;;;;;12.02;10.85;;;;;;;;;;5072795;28;20032;-80
2022/09/12 00:20:09;;;;;;;11.32;10.23;;;;;;;;;;5068238;28;20071;-81
2022/09/12 00:22:36;;;;;;;10.95;9.82;;;;;;;;;;5088537;28;20056;-81
2022/09/12 00:25:02;;;;;;;11.68;10.57;;;;;;;;;;5083480;28;20119;-80
2022/09/12 00:27:28;;;;;;;15.35;10.88;;;;;;;;;;5086068;28;20455;-80
2022/09/12 00:29:54;;;;;;;12.73;11.18;;;;;;;;;;5088215;28;20399;-80
2022/09/12 00:32:20;;;;;;;12.57;11.48;;;;;;;;;;5069183;28;20043;-80
2022/09/12 00:34:47;;;;;;;12.38;11.25;;;;;;;;;;5066150;28;20040;-80
2022/09/12 00:37:13;;;;;;;12.23;11.13;;;;;;;;;;5068739;28;20055;-81
2022/09/12 00:39:39;;;;;;;12.77;11.57;;;;;;;;;;5064070;28;20048;-80
2022/09/12 00:42:05;;;;;;;12.05;10.95;;;;;;;;;;5069834;28;20047;-81
2022/09/12 00:44:34;;;;;;;12.15;11.05;;;;;;;;;;5084182;28;20048;-80
2022/09/12 00:47:05;;;;;;;12.23;10.95;;;;;;;;;;5085389;28;20052;-80
2022/09/12 00:49:37;;;;;;;11.35;10.25;;;;;;;;;;5069458;28;20067;-80
2022/09/12 00:52:08;;;;;;;11.65;10.25;;;;;;;;;;5066370;28;20605;-81
2022/09/12 00:54:36;;;;;;;11.40;10.38;;;;;;;;;;5062159;28;20040;-81
2022/09/12 00:57:04;;;;;;;10.93;9.90;;;;;;;;;;5070158;28;20432;-80
2022/09/12 00:59:39;;;;;;;11.40;10.27;;;;;;;;;;5087786;28;20160;-80
2022/09/12 01:02:06;;;;;;;11.13;10.13;;;;;;;;;;5081653;28;20465;-81
2022/09/12 01:04:32;;;;;;;10.63;9.52;;;;;;;;;;5064715;28;20035;-81
2022/09/12 01:06:58;;;;;;;11.02;9.98;;;;;;;;;;5063926;28;20477;-81
2022/09/12 01:09:25;;;;;;;10.65;9.55;;;;;;;;;;5069536;28;20066;-81
2022/09/12 01:11:52;;;;;;;10.45;9.52;;;;;;;;;;5069462;28;20134;-80
2022/09/12 01:14:18;;;;;;;10.57;9.48;;;;;;;;;;5087656;28;20047;-80
2022/09/12 01:16:45;;;;;;;10.82;9.63;;;;;;;;;;5083917;28;20036;-80
2022/09/12 01:19:31;;;;;;;11.35;10.30;;;;;;;;;;5085993;28;20047;-81
2022/09/12 01:22:03;;;;;;;11.63;10.13;;;;;;;;;;5013205;28;20048;-80
2022/09/12 01:24:33;;;;;;;11.40;10.30;;;;;;;;;;5067857;28;20052;-81
2022/09/12 01:27:18;;;;;;;12.68;10.30;;;;;;;;;;5067816;28;20051;-80
2022/09/12 01:29:44;;;;;;;12.05;10.85;;;;;;;;;;5066820;28;20039;-80
2022/09/12 01:32:16;;;;;;;11.45;10.35;;;;;;;;;;5061410;28;20047;-80
2022/09/12 01:34:45;;;;;;;11.60;10.50;;;;;;;;;;5068312;28;20499;-80
2022/09/12 01:37:15;;;;;;;11.45;10.40;;;;;;;;;;5085671;28;20051;-80
2022/09/12 01:39:57;;;;;;;11.63;10.48;;;;;;;;;;5077714;28;20058;-80
2022/09/12 01:42:32;;;;;;;10.93;9.93;;;;;;;;;;5086352;28;20035;-80
2022/09/12 01:45:12;;;;;;;11.48;10.20;;;;;;;;;;5088009;28;20302;-80
2022/09/12 01:47:38;;;;;;;11.52;10.43;;;;;;;;;;5086678;28;20127;-80
2022/09/12 01:50:07;;;;;;;11.50;10.30;;;;;;;;;;5064758;28;20055;-80
2022/09/12 01:52:49;;;;;;;11.60;10.50;;;;;;;;;;5063359;28;20143;-80
2022/09/12 01:55:33;;;;;;;11.55;10.45;;;;;;;;;;5084459;28;20040;-81
2022/09/12 01:58:09;;;;;;;11.68;10.57;;;;;;;;;;5067081;28;20223;-80
2022/09/12 02:00:38;;;;;;;11.65;10.52;;;;;;;;;;5083184;28;20044;-81
2022/09/12 02:03:09;;;;;;;12.20;10.60;;;;;;;;;;5063158;28;20063;-80
2022/09/12 02:06:01;;;;;;;12.27;11.02;;;;;;;;;;5064163;28;20160;-81
2022/09/12 02:08:45;;;;;;;11.98;10.35;;;;;;;;;;5066103;28;20055;-81
2022/09/12 02:11:12;;;;;;;12.02;10.88;;;;;;;;;;5065065;28;20507;-80
2022/09/12 02:13:43;;;;;;;12.82;10.65;;;;;;;;;;5065424;28;20051;-80
2022/09/12 02:16:21;;;;;;;12.27;10.98;;;;;;;;;;5065687;28;20048;-80
2022/09/12 02:18:51;;;;;;;13.00;11.63;;;;;;;;;;5062799;28;20045;-81
2022/09/12 02:21:19;;;;;;;12.60;11.50;;;;;;;;;;5070535;28;20051;-81
2022/09/12 02:23:47;;;;;;;12.10;11.00;;;;;;;;;;5085441;28;20046;-81
2022/09/12 02:26:34;;;;;;;12.13;10.95;;;;;;;;;;5070068;28;20051;-80
2022/09/12 02:29:00;;;;;;;12.77;11.45;;;;;;;;;;5072073;28;20058;-81
2022/09/12 02:31:26;;;;;;;13.13;11.93;;;;;;;;;;5072702;28;20043;-81
2022/09/12 02:33:58;;;;;;;12.77;11.57;;;;;;;;;;5083655;28;20032;-81
2022/09/12 02:36:34;;;;;;;12.32;11.02;;;;;;;;;;5073677;28;20055;-80
2022/09/12 02:39:00;;;;;;;13.65;11.93;;;;;;;;;;5071185;28;20071;-80
2022/09/12 02:41:26;;;;;;;13.35;12.05;;;;;;;;;;5068652;28;20048;-81
2022/09/12 02:43:53;;;;;;;13.95;11.85;;;;;;;;;;5085132;28;20507;-81
2022/09/12 02:46:24;;;;;;;12.60;11.30;;;;;;;;;;5068555;28;20048;-80
2022/09/12 02:48:51;;;;;;;14.32;13.02;;;;;;;;;;5066155;28;20071;-81
2022/09/12 02:51:17;;;;;;;13.98;12.57;;;;;;;;;;5086193;28;20091;-81
2022/09/12 02:53:43;;;;;;;13.52;12.13;;;;;;;;;;5069928;28;20483;-81
2022/09/12 02:56:12;;;;;;;12.55;11.35;;;;;;;;;;5070136;28;20048;-80
2022/09/12 02:58:38;;;;;;;14.02;12.73;;;;;;;;;;5084812;28;20044;-81
2022/09/12 03:01:04;;;;;;;14.50;12.80;;;;;;;;;;5088727;28;20400;-81
2022/09/12 03:03:39;;;;;;;15.48;13.98;;;;;;;;;;5063245;28;20041;-81
2022/09/12 03:06:32;;;;;;;14.68;13.27;;;;;;;;;;5089621;28;20132;-81
2022/09/12 03:09:13;;;;;;;15.23;13.73;;;;;;;;;;5046817;28;20044;-81
2022/09/12 03:11:39;;;;;;;14.88;13.38;;;;;;;;;;5068561;28;20134;-80
2022/09/12 03:14:17;;;;;;;16.15;14.55;;;;;;;;;;5069606;28;20449;-81
2022/09/12 03:16:43;;;;;;;15.40;13.90;;;;;;;;;;5072515;28;20051;-80
2022/09/12 03:19:18;;;;;;;15.25;13.70;;;;;;;;;;5070216;28;20036;-81
2022/09/12 03:21:50;;;;;;;15.95;14.27;;;;;;;;;;5069013;28;20064;-81
2022/09/12 03:24:33;;;;;;;15.60;13.85;;;;;;;;;;5090125;28;20036;-81
2022/09/12 03:27:32;;;;;;;15.80;14.30;;;;;;;;;;5089753;28;20400;-81
2022/09/12 03:29:59;;;;;;;17.10;15.30;;;;;;;;;;5034812;28;20055;-81
2022/09/12 03:32:41;;;;;;;15.75;14.25;;;;;;;;;;5083447;28;20092;-81
2022/09/12 03:35:07;;;;;;;16.80;15.13;;;;;;;;;;5085455;28;20048;-81
2022/09/12 03:37:33;;;;;;;15.90;14.40;;;;;;;;;;5071953;28;20391;-81
2022/09/12 03:39:59;;;;;;;15.60;14.10;;;;;;;;;;5080271;28;20047;-81
2022/09/12 03:42:25;;;;;;;16.90;15.10;;;;;;;;;;5068672;28;20040;-81
2022/09/12 03:44:51;;;;;;;17.00;15.20;;;;;;;;;;5086373;28;20093;-81
2022/09/12 03:47:17;;;;;;;18.55;16.45;;;;;;;;;;5084991;28;20040;-81
2022/09/12 03:49:43;;;;;;;16.77;15.10;;;;;;;;;;5082568;28;20562;-81
2022/09/12 03:52:09;;;;;;;16.85;15.20;;;;;;;;;;5069796;28;20048;-81
2022/09/12 03:54:35;;;;;;;17.40;15.60;;;;;;;;;;5090421;28;20478;-81
2022/09/12 03:57:01;;;;;;;19.17;16.95;;;;;;;;;;5069783;28;20044;-81
2022/09/12 03:59:27;;;;;;;19.45;16.80;;;;;;;;;;5065837;28;20040;-81
2022/09/12 04:01:53;;;;;;;18.65;16.83;;;;;;;;;;5088985;28;20047;-81
2022/09/12 04:04:19;;;;;;;18.33;16.52;;;;;;;;;;5086092;28;20144;-81
2022/09/12 04:06:45;;;;;;;18.98;16.98;;;;;;;;;;5087780;28;20044;-81
2022/09/12 04:09:11;;;;;;;18.88;15.95;;;;;;;;;;5067293;28;20048;-81
2022/09/12 04:11:37;;;;;;;19.40;17.27;;;;;;;;;;5091120;28;20503;-81
2022/09/12 04:14:03;;;;;;;20.05;17.95;;;;;;;;;;5071383;28;20039;-81
2022/09/12 04:16:31;;;;;;;19.83;17.75;;;;;;;;;;5084098;28;20048;-81
2022/09/12 04:18:57;;;;;;;18.85;17.00;;;;;;;;;;5087192;28;20078;-81
2022/09/12 04:21:23;;;;;;;19.50;16.75;;;;;;;;;;5066043;28;20083;-81
2022/09/12 04:23:49;;;;;;;19.45;17.45;;;;;;;;;;5086717;28;20642;-81
2022/09/12 04:26:16;;;;;;;19.55;17.65;;;;;;;;;;5066392;28;20036;-80
2022/09/12 04:28:42;;;;;;;19.40;17.40;;;;;;;;;;5066853;28;20777;-81
2022/09/12 04:31:11;;;;;;;19.20;17.20;;;;;;;;;;5083627;28;20145;-81
2022/09/12 04:33:37;;;;;;;19.65;17.70;;;;;;;;;;5083717;28;20048;-80
2022/09/12 04:36:08;;;;;;;19.17;17.27;;;;;;;;;;5088880;28;20063;-80
2022/09/12 04:38:35;;;;;;;19.70;17.70;;;;;;;;;;5086569;28;20044;-80
2022/09/12 04:41:01;;;;;;;20.73;18.75;;;;;;;;;;5090081;28;20051;-81
2022/09/12 04:43:27;;;;;;;21.42;19.13;;;;;;;;;;5072671;28;20094;-80
2022/09/12 04:45:53;;;;;;;20.80;18.67;;;;;;;;;;5066850;28;20105;-80
2022/09/12 04:48:19;;;;;;;20.38;18.27;;;;;;;;;;5068258;28;20479;-82
2022/09/12 04:50:45;;;;;;;21.25;19.05;;;;;;;;;;5065349;28;20048;-82
2022/09/12 04:53:11;;;;;;;22.10;19.92;;;;;;;;;;5062894;28;20052;-82
2022/09/12 04:55:37;;;;;;;21.73;19.50;;;;;;;;;;5066853;28;20501;-80
2022/09/12 04:58:03;;;;;;;19.10;17.20;;;;;;;;;;5062716;28;20060;-80
2022/09/12 05:00:32;;;;;;;21.02;18.83;;;;;;;;;;5059569;28;20151;-81
2022/09/12 05:02:59;;;;;;;22.98;20.08;;;;;;;;;;5062672;28;20045;-81
2022/09/12 05:05:25;;;;;;;22.55;20.25;;;;;;;;;;5059467;28;20048;-81
2022/09/12 05:07:51;;;;;;;20.58;18.40;;;;;;;;;;5064291;28;20037;-82
2022/09/12 05:10:17;;;;;;;22.40;20.02;;;;;;;;;;5063245;28;20044;-80
2022/09/12 05:12:43;;;;;;;22.98;20.63;;;;;;;;;;5066757;28;20047;-81
2022/09/12 05:15:09;;;;;;;23.15;20.65;;;;;;;;;;5066416;28;20032;-81
2022/09/12 05:17:35;;;;;;;22.85;20.05;;;;;;;;;;5063063;28;20041;-81
2022/09/12 05:20:01;;;;;;;22.67;20.25;;;;;;;;;;5066406;28;20389;-81
2022/09/12 05:22:27;;;;;;;21.20;19.00;;;;;;;;;;5066764;28;20048;-80
2022/09/12 05:24:53;;;;;;;22.77;20.38;;;;;;;;;;5068215;28;20105;-80
2022/09/12 05:27:19;;;;;;;23.60;20.27;;;;;;;;;;5058025;28;20044;-80
2022/09/12 05:29:45;;;;;;;24.08;20.92;;;;;;;;;;5067165;28;20133;-80
2022/09/12 05:32:11;;;;;;;22.70;20.38;;;;;;;;;;5065336;28;20067;-81
2022/09/12 05:34:38;;;;;;;22.65;20.08;;;;;;;;;;5062010;28;20543;-81
2022/09/12 05:37:04;;;;;;;24.80;20.00;;;;;;;;;;5061160;28;20044;-80
2022/09/12 05:39:30;;;;;;;20.92;18.80;;;;;;;;;;5068252;28;20438;-80
2022/09/12 05:41:56;;;;;;;22.88;20.10;;;;;;;;;;5065525;28;20049;-80
2022/09/12 05:44:23;;;;;;;23.33;20.92;;;;;;;;;;5060402;28;20520;-80
2022/09/12 05:46:50;;;;;;;22.98;20.40;;;;;;;;;;5057922;28;20045;-80
2022/09/12 05:49:16;;;;;;;22.55;20.10;;;;;;;;;;5068095;28;20142;-80
2022/09/12 05:51:43;;;;;;;22.75;20.00;;;;;;;;;;5068327;28;20492;-80
2022/09/12 05:54:11;;;;;;;22.17;19.80;;;;;;;;;;5068216;28;20060;-81
2022/09/12 05:56:38;;;;;;;21.85;19.30;;;;;;;;;;5063381;28;20045;-80
2022/09/12 05:59:05;;;;;;;22.42;20.13;;;;;;;;;;5060834;28;20052;-80
2022/09/12 06:01:32;;;;;;;23.02;20.55;;;;;;;;;;5067346;28;20515;-81
2022/09/12 06:04:00;;;;;;;21.25;19.05;;;;;;;;;;5061492;28;20541;-80
2022/09/12 06:06:27;;;;;;;21.88;19.60;;;;;;;;;;5067029;28;20090;-81
2022/09/12 06:08:53;;;;;;;22.58;19.23;;;;;;;;;;5067833;28;20453;-80
2022/09/12 06:11:21;;;;;;;21.65;19.33;;;;;;;;;;5065217;28;20040;-80
2022/09/12 06:13:47;;;;;;;21.42;19.02;;;;;;;;;;5070112;28;20079;-80
2022/09/12 06:16:18;;;;;;;20.98;18.88;;;;;;;;;;5068703;28;20045;-80
2022/09/12 06:18:48;;;;;;;23.08;18.92;;;;;;;;;;5068170;28;20048;-80
2022/09/12 06:21:15;;;;;;;21.33;19.02;;;;;;;;;;5069399;28;20076;-80
2022/09/12 06:23:41;;;;;;;20.45;18.25;;;;;;;;;;5068355;28;20106;-81
2022/09/12 06:26:09;;;;;;;20.88;18.67;;;;;;;;;;5063611;28;20040;-80
2022/09/12 06:28:36;;;;;;;21.23;18.95;;;;;;;;;;5069438;28;20450;-80
2022/09/12 06:31:06;;;;;;;20.33;18.25;;;;;;;;;;5070881;28;20373;-80
2022/09/12 06:33:39;;;;;;;20.63;18.52;;;;;;;;;;5061976;28;20468;-80
2022/09/12 06:36:06;;;;;;;19.73;17.63;;;;;;;;;;5062293;28;20057;-80
2022/09/12 06:38:32;;;;;;;20.63;17.92;;;;;;;;;;5055123;28;20054;-81
2022/09/12 06:40:59;;;;;;;19.27;17.27;;;;;;;;;;5062005;28;20048;-80
2022/09/12 06:43:25;;;;;;;20.42;18.23;;;;;;;;;;5067600;28;20036;-79
2022/09/12 06:45:51;;;;;;;20.85;18.20;;;;;;;;;;5057657;28;20447;-80
2022/09/12 06:48:17;;;;;;;20.05;17.73;;;;;;;;;;5065819;28;20048;-79
2022/09/12 06:50:43;;;;;;;19.67;17.70;;;;;;;;;;5055253;28;20059;-80
2022/09/12 06:53:09;;;;;;;20.20;17.63;;;;;;;;;;5061430;28;20512;-80
2022/09/12 06:55:35;;;;;;;19.83;16.50;;;;;;;;;;5062116;28;20044;-80
2022/09/12 06:58:01;;;;;;;18.60;16.60;;;;;;;;;;5065536;28;20096;-81
2022/09/12 07:00:27;;;;;;;19.23;17.27;;;;;;;;;;5065018;28;20032;-80
2022/09/12 07:02:55;;;;;;;18.55;16.63;;;;;;;;;;5066718;28;20048;-80
2022/09/12 07:05:21;;;;;;;19.33;17.33;;;;;;;;;;5065252;28;20075;-81
2022/09/12 07:07:47;;;;;;;19.35;16.98;;;;;;;;;;5057564;28;20048;-80
2022/09/12 07:10:13;;;;;;;17.52;15.73;;;;;;;;;;5065230;28;20040;-80
2022/09/12 07:12:39;;;;;;;19.80;17.42;;;;;;;;;;5068516;28;20056;-80
2022/09/12 07:15:05;;;;;;;18.60;16.70;;;;;;;;;;5070022;28;20036;-80
2022/09/12 07:17:31;;;;;;;18.95;16.67;;;;;;;;;;5062538;28;20154;-79
2022/09/12 07:19:57;;;;;;;18.45;16.48;;;;;;;;;;5065572;28;20114;-79
2022/09/12 07:22:24;;;;;;;18.33;16.52;;;;;;;;;;5070016;28;20500;-80
2022/09/12 07:24:50;;;;;;;21.30;16.95;;;;;;;;;;5069662;28;20087;-80
2022/09/12 07:27:16;;;;;;;18.30;16.50;;;;;;;;;;5064725;28;20385;-80
2022/09/12 07:29:43;;;;;;;16.90;15.20;;;;;;;;;;5073242;28;20064;-80
2022/09/12 07:32:10;;;;;;;18.45;16.45;;;;;;;;;;5070111;28;20603;-80
2022/09/12 07:34:37;;;;;;;17.25;15.15;;;;;;;;;;5071314;28;20143;-80
2022/09/12 07:37:03;;;;;;;17.48;15.68;;;;;;;;;;5071007;28;20123;-80
2022/09/12 07:39:29;;;;;;;17.55;15.73;;;;;;;;;;5073580;28;20473;-80
2022/09/12 07:41:56;;;;;;;17.73;15.43;;;;;;;;;;5067266;28;20080;-80
2022/09/12 07:44:22;;;;;;;17.27;15.40;;;;;;;;;;5068920;28;20649;-80
2022/09/12 07:46:49;;;;;;;18.52;15.48;;;;;;;;;;5068799;28;20052;-80
2022/09/12 07:49:15;;;;;;;17.85;15.75;;;;;;;;;;5066537;28;20092;-80
2022/09/12 07:51:41;;;;;;;17.35;15.55;;;;;;;;;;5067633;28;20514;-80
2022/09/12 07:54:08;;;;;;;18.75;16.38;;;;;;;;;;5069835;28;20049;-80
2022/09/12 07:56:34;;;;;;;16.90;15.20;;;;;;;;;;5066157;28;21310;-80
2022/09/12 07:59:00;;;;;;;18.23;16.00;;;;;;;;;;5069816;28;20127;-80
2022/09/12 08:01:26;;;;;;;17.95;15.40;;;;;;;;;;5065690;28;20887;-80
2022/09/12 08:03:56;;;;;;;18.40;16.50;;;;;;;;;;5058485;28;20098;-80
2022/09/12 08:06:23;;;;;;;18.48;15.65;;;;;;;;;;5071992;28;20438;-80
2022/09/12 08:08:50;;;;;;;17.70;15.90;;;;;;;;;;5070559;28;20044;-80
2022/09/12 08:11:17;;;;;;;18.23;16.33;;;;;;;;;;5065979;28;20478;-80
2022/09/12 08:13:43;;;;;;;18.58;16.58;;;;;;;;;;5070633;28;20412;-80
2022/09/12 08:16:13;;;;;;;18.95;16.95;;;;;;;;;;5068148;28;20041;-81
2022/09/12 08:18:39;;;;;;;19.55;17.08;;;;;;;;;;5065687;28;20055;-80
2022/09/12 08:21:16;;;;;;;17.55;15.73;;;;;;;;;;5064605;28;20040;-80
2022/09/12 08:23:44;;;;;;;19.63;16.10;;;;;;;;;;5069415;28;20127;-80
2022/09/12 08:26:11;;;;;;;19.15;17.05;;;;;;;;;;5059072;28;20578;-81
2022/09/12 08:28:41;;;;;;;18.33;16.42;;;;;;;;;;5061289;28;20135;-80
2022/09/12 08:31:08;;;;;;;18.70;16.80;;;;;;;;;;5065565;28;20075;-80
2022/09/12 08:33:34;;;;;;;19.38;17.35;;;;;;;;;;5067490;28;20074;-80
2022/09/12 08:36:03;;;;;;;22.17;17.70;;;;;;;;;;5070568;28;20041;-80
2022/09/12 08:38:29;;;;;;;21.00;17.20;;;;;;;;;;5057832;28;20048;-80
2022/09/12 08:41:01;;;;;;;20.92;17.10;;;;;;;;;;5067952;28;20048;-80
2022/09/12 08:43:42;;;;;;;17.40;15.65;;;;;;;;;;5069231;28;20066;-80
2022/09/12 08:46:11;;;;;;;18.08;16.17;;;;;;;;;;5063102;28;20045;-80
2022/09/12 08:48:37;;;;;;;22.75;16.85;;;;;;;;;;5062507;28;20052;-80
2022/09/12 08:51:04;;;;;;;17.83;15.68;;;;;;;;;;5072947;28;20154;-81
2022/09/12 08:53:30;;;;;;;19.33;15.93;;;;;;;;;;5089467;28;20048;-79
2022/09/12 08:55:58;;;;;;;17.73;15.77;;;;;;;;;;5057904;28;20058;-80
2022/09/12 08:58:26;;;;;;;21.88;16.52;;;;;;;;;;5082060;28;20051;-80
2022/09/12 09:00:55;;;;;;;16.63;14.93;;;;;;;;;;5068735;28;20056;-80
2022/09/12 09:03:21;;;;;;;17.77;15.50;;;;;;;;;;5087000;28;20065;-80
2022/09/12 09:05:54;;;;;;;18.63;15.10;;;;;;;;;;5056870;28;20048;-80
2022/09/12 09:08:27;;;;;;;18.05;14.70;;;;;;;;;;5070862;28;20040;-79
2022/09/12 09:10:56;;;;;;;16.70;15.00;;;;;;;;;;5057912;28;20041;-79
2022/09/12 09:16:34;;;;;;;15.88;13.10;;;;;;;;;;5090201;28;20048;-80
2022/09/12 09:19:02;;;;;;;14.57;13.05;;;;;;;;;;5065269;28;20189;-80
2022/09/12 09:21:37;;;;;;;15.25;12.60;;;;;;;;;;5062445;28;20052;-80
2022/09/12 09:24:05;;;;;;;14.07;12.50;;;;;;;;;;5072933;28;20040;-79
2022/09/12 09:26:40;;;;;;;17.13;13.00;;;;;;;;;;5073140;28;20048;-79
2022/09/12 09:29:13;;;;;;;14.05;12.55;;;;;;;;;;5073480;28;20125;-80
2022/09/12 09:31:39;;;;;;;13.73;12.32;;;;;;;;;;5073193;28;20484;-79
2022/09/12 09:34:13;;;;;;;13.20;11.85;;;;;;;;;;5057519;28;20130;-79
2022/09/12 09:37:00;;;;;;;15.43;12.57;;;;;;;;;;5066780;28;20249;-80
2022/09/12 09:39:37;;;;;;;13.35;11.27;;;;;;;;;;5072508;28;20123;-79
2022/09/12 09:42:02;;;;;;;13.40;11.23;;;;;;;;;;5074334;28;20094;-79
2022/09/12 09:44:29;;;;;;;14.40;11.15;;;;;;;;;;5071599;28;20083;-79
2022/09/12 09:46:57;;;;;;;11.82;10.63;;;;;;;;;;5073598;28;20086;-79
2022/09/12 09:49:24;;;;;;;12.88;11.57;;;;;;;;;;5089278;28;20091;-79
2022/09/12 09:51:51;;;;;;;16.92;13.85;;;;;;;;;;5070371;28;20517;-79
2022/09/12 09:54:19;;;;;;;14.38;12.88;;;;;;;;;;5085113;28;20077;-79
2022/09/12 09:56:45;;;;;;;14.98;12.18;;;;;;;;;;5091929;28;20056;-79
2022/09/12 09:59:16;;;;;;;14.75;12.40;;;;;;;;;;5090455;28;20116;-79
2022/09/12 10:01:46;;;;;;;12.23;10.95;;;;;;;;;;5069799;28;20055;-79
2022/09/12 10:04:18;;;;;;;12.82;11.35;;;;;;;;;;5083553;28;20040;-79
2022/09/12 10:06:44;;;;;;;14.68;11.95;;;;;;;;;;5091529;28;20055;-80
2022/09/12 10:09:21;;;;;;;13.52;12.13;;;;;;;;;;5089231;28;20548;-80
2022/09/12 10:11:47;;;;;;;13.77;12.07;;;;;;;;;;5080726;28;20041;-80
2022/09/12 10:14:26;;;;;;;13.25;11.85;;;;;;;;;;5090326;28;20085;-80
2022/09/12 10:16:52;;;;;;;12.90;11.52;;;;;;;;;;5070764;28;20384;-79
2022/09/12 10:19:26;;;;;;;14.93;12.70;;;;;;;;;;5065758;28;20503;-79
2022/09/12 10:21:53;;;;;;;16.45;11.95;;;;;;;;;;5055544;28;20719;-79
2022/09/12 10:24:26;;;;;;;10.93;9.50;;;;;;;;;;5089105;28;20036;-78
2022/09/12 10:26:55;;;;;;;14.70;10.27;;;;;;;;;;5059648;28;20060;-79
2022/09/12 10:29:26;;;;;;;12.30;9.75;;;;;;;;;;5058919;28;20056;-78
2022/09/12 10:31:54;;;;;;;12.30;10.00;;;;;;;;;;5068620;28;20075;-79
2022/09/12 10:34:29;;;;;;;12.43;10.95;;;;;;;;;;5071611;28;20135;-80
2022/09/12 10:36:59;;;;;;;12.98;11.20;;;;;;;;;;5071041;28;20056;-79
2022/09/12 10:39:26;;;;;;;13.75;11.88;;;;;;;;;;5071215;28;20098;-79
2022/09/12 10:41:52;;;;;;;12.65;11.30;;;;;;;;;;5060437;28;20056;-80
2022/09/12 10:44:26;;;;;;;12.57;10.65;;;;;;;;;;5090659;28;20051;-80
2022/09/12 10:46:53;;;;;;;12.07;10.80;;;;;;;;;;5080836;28;20078;-79
2022/09/12 10:49:20;;;;;;;12.43;10.43;;;;;;;;;;5086343;28;20398;-79
2022/09/12 10:51:47;;;;;;;12.85;11.40;;;;;;;;;;5075452;28;20488;-80
2022/09/12 10:54:15;;;;;;;14.05;11.68;;;;;;;;;;5089878;28;20044;-79
2022/09/12 10:56:42;;;;;;;13.15;11.75;;;;;;;;;;5089875;28;20040;-80
2022/09/12 10:59:14;;;;;;;14.25;12.73;;;;;;;;;;5085442;28;20047;-80
2022/09/12 11:01:43;;;;;;;14.05;12.35;;;;;;;;;;5056884;28;20090;-79
2022/09/12 11:04:20;;;;;;;13.45;12.05;;;;;;;;;;5088542;28;20048;-80
2022/09/12 11:06:54;;;;;;;15.98;14.27;;;;;;;;;;5066889;28;20479;-80
2022/09/12 11:09:39;;;;;;;14.23;12.73;;;;;;;;;;5074499;28;20051;-79
2022/09/12 11:12:20;;;;;;;16.52;14.23;;;;;;;;;;5072723;28;20064;-79
2022/09/12 11:15:02;;;;;;;15.63;13.73;;;;;;;;;;5070023;28;20168;-80
2022/09/12 11:17:38;;;;;;;15.70;13.38;;;;;;;;;;5070735;28;20041;-79
2022/09/12 11:20:04;;;;;;;14.77;13.20;;;;;;;;;;5072622;28;20534;-78
2022/09/12 11:22:30;;;;;;;14.50;13.05;;;;;;;;;;5068068;28;20081;-80
2022/09/12 11:25:14;;;;;;;14.05;12.65;;;;;;;;;;5092599;28;20044;-80
2022/09/12 11:27:50;;;;;;;14.60;13.13;;;;;;;;;;5089790;28;20040;-80
2022/09/12 11:30:16;;;;;;;15.02;13.43;;;;;;;;;;5077715;28;20401;-80
2022/09/12 11:32:49;;;;;;;15.07;12.77;;;;;;;;;;5071458;28;20040;-80
2022/09/12 11:35:15;;;;;;;13.65;12.25;;;;;;;;;;5073460;28;20040;-79
2022/09/12 11:37:42;;;;;;;13.85;12.25;;;;;;;;;;5083292;28;20051;-79
2022/09/12 11:40:27;;;;;;;13.48;12.07;;;;;;;;;;5072215;28;20044;-80
2022/09/12 11:42:55;;;;;;;13.30;11.48;;;;;;;;;;5089294;28;20041;-80
2022/09/12 11:45:29;;;;;;;13.00;11.05;;;;;;;;;;5070929;28;20445;-80
2022/09/12 11:47:58;;;;;;;12.15;10.95;;;;;;;;;;5086288;28;20124;-80
2022/09/12 11:50:27;;;;;;;13.40;11.88;;;;;;;;;;5090472;28;20487;-80
2022/09/12 11:52:55;;;;;;;13.25;11.85;;;;;;;;;;5082374;28;20048;-80
2022/09/12 11:55:27;;;;;;;13.52;12.13;;;;;;;;;;5067850;28;20403;-80
2022/09/12 11:57:57;;;;;;;14.10;12.57;;;;;;;;;;5067652;28;20079;-79
2022/09/12 12:00:26;;;;;;;12.73;11.40;;;;;;;;;;5070627;28;20059;-80
2022/09/12 12:02:58;;;;;;;13.63;12.23;;;;;;;;;;5090036;28;20464;-80
2022/09/12 12:05:36;;;;;;;13.85;12.27;;;;;;;;;;5067566;28;20048;-80
2022/09/12 12:08:05;;;;;;;14.63;12.77;;;;;;;;;;5062057;28;20502;-80
2022/09/12 12:10:48;;;;;;;13.73;12.25;;;;;;;;;;5055848;28;20048;-79
2022/09/12 12:13:14;;;;;;;13.73;11.93;;;;;;;;;;5075745;28;20051;-80
2022/09/12 12:15:45;;;;;;;14.30;12.52;;;;;;;;;;5089373;28;20036;-80
2022/09/12 12:18:16;;;;;;;12.32;11.05;;;;;;;;;;5091937;28;20032;-80
2022/09/12 12:20:42;;;;;;;12.02;10.82;;;;;;;;;;5067821;28;20055;-80
2022/09/12 12:23:22;;;;;;;12.98;11.68;;;;;;;;;;5065911;28;20440;-81
2022/09/12 12:25:53;;;;;;;13.32;11.73;;;;;;;;;;5070330;28;20044;-79
2022/09/12 12:28:38;;;;;;;12.98;11.68;;;;;;;;;;5059401;28;20096;-79
2022/09/12 12:31:05;;;;;;;13.73;11.30;;;;;;;;;;5071226;28;20052;-79
2022/09/12 12:33:31;;;;;;;13.43;12.00;;;;;;;;;;5091322;28;20066;-79
2022/09/12 12:36:00;;;;;;;13.45;12.05;;;;;;;;;;5071893;28;20044;-79
2022/09/12 12:38:26;;;;;;;13.70;12.30;;;;;;;;;;5069541;28;20097;-79
2022/09/12 12:40:52;;;;;;;14.05;12.35;;;;;;;;;;5072865;28;20131;-79
2022/09/12 12:43:30;;;;;;;13.02;11.60;;;;;;;;;;5090613;28;20076;-79
2022/09/12 12:46:04;;;;;;;11.82;10.63;;;;;;;;;;5073535;28;20407;-79
2022/09/12 12:48:32;;;;;;;14.55;11.60;;;;;;;;;;5084077;28;20048;-79
2022/09/12 12:51:16;;;;;;;12.57;11.38;;;;;;;;;;5091251;28;20373;-79
2022/09/12 12:53:42;;;;;;;12.52;10.63;;;;;;;;;;5081345;28;20048;-79
2022/09/12 12:56:25;;;;;;;12.77;10.98;;;;;;;;;;5074874;28;20460;-79
2022/09/12 12:58:57;;;;;;;11.43;10.27;;;;;;;;;;5070734;28;20500;-79
2022/09/12 13:01:23;;;;;;;11.63;10.48;;;;;;;;;;5074088;28;20059;-79
2022/09/12 13:03:54;;;;;;;12.27;11.07;;;;;;;;;;5081118;28;20048;-79
2022/09/12 13:06:32;;;;;;;12.32;10.57;;;;;;;;;;5073651;28;20048;-79
2022/09/12 13:09:01;;;;;;;11.65;10.23;;;;;;;;;;5081770;28;20353;-79
2022/09/12 13:11:32;;;;;;;10.52;9.43;;;;;;;;;;5086529;28;20426;-79
2022/09/12 13:13:59;;;;;;;10.07;8.52;;;;;;;;;;5078032;28;20032;-79
2022/09/12 13:16:30;;;;;;;10.82;9.73;;;;;;;;;;5068676;28;20052;-79
2022/09/12 13:18:56;;;;;;;9.98;8.98;;;;;;;;;;5075969;28;20036;-79
2022/09/12 13:21:22;;;;;;;9.43;8.43;;;;;;;;;;5072602;28;20147;-79
2022/09/12 13:24:07;;;;;;;9.75;8.75;;;;;;;;;;5078972;28;20056;-79
2022/09/12 13:26:35;;;;;;;9.63;8.57;;;;;;;;;;5072558;28;20067;-79
2022/09/12 13:29:17;;;;;;;10.45;9.35;;;;;;;;;;5060291;28;20048;-79
2022/09/12 13:31:47;;;;;;;10.55;9.45;;;;;;;;;;5089718;28;20086;-79
2022/09/12 13:34:43;;;;;;;9.52;8.65;;;;;;;;;;5070582;28;20044;-79
2022/09/12 13:37:27;;;;;;;9.68;8.38;;;;;;;;;;5046731;28;20048;-79
2022/09/12 13:39:56;;;;;;;10.10;9.20;;;;;;;;;;5084806;28;20122;-79
2022/09/12 13:42:25;;;;;;;10.50;9.20;;;;;;;;;;5072858;28;20052;-79
2022/09/12 13:44:57;;;;;;;9.48;8.57;;;;;;;;;;5082604;28;20091;-79
2022/09/12 13:47:34;;;;;;;9.10;8.20;;;;;;;;;;5059758;28;20105;-79
2022/09/12 13:50:00;;;;;;;8.32;7.10;;;;;;;;;;5069383;28;20492;-79
2022/09/12 13:52:31;;;;;;;7.88;6.90;;;;;;;;;;5072536;28;20123;-79
2022/09/12 13:54:58;;;;;;;9.57;8.48;;;;;;;;;;5085565;28;20059;-79
2022/09/12 13:57:38;;;;;;;8.95;8.05;;;;;;;;;;5073997;28;20139;-79
2022/09/12 14:00:04;;;;;;;8.18;7.38;;;;;;;;;;5070395;28;20051;-79
2022/09/12 14:02:34;;;;;;;8.00;7.20;;;;;;;;;;5073823;28;20072;-79
2022/09/12 14:05:07;;;;;;;8.10;7.32;;;;;;;;;;5060442;28;20046;-79
2022/09/12 14:07:34;;;;;;;8.98;6.95;;;;;;;;;;5071440;28;20079;-79
2022/09/12 14:10:03;;;;;;;7.22;6.53;;;;;;;;;;5081213;28;20044;-79
2022/09/12 14:12:33;;;;;;;6.55;5.82;;;;;;;;;;5091756;28;20048;-79
2022/09/12 14:15:00;;;;;;;6.78;6.07;;;;;;;;;;5070857;28;20381;-79
2022/09/12 14:17:32;;;;;;;7.97;6.80;;;;;;;;;;5074733;28;20079;-78
2022/09/12 14:19:58;;;;;;;;;;;;;;;;;;5079142;28;20128;-79
2022/09/12 14:22:25;;;;;;;8.40;7.60;;;;;;;;;;5093060;28;19998;-78
2022/09/12 14:24:52;;;;;;;7.85;7.15;;;;;;;;;;5090548;28;20519;-78
2022/09/12 14:27:19;;;;;;;7.55;6.50;;;;;;;;;;5095045;28;20067;-78
2022/09/12 14:29:46;;;;;;;8.88;7.20;;;;;;;;;;5073172;28;20051;-79
2022/09/12 14:32:20;;;;;;;7.15;6.45;;;;;;;;;;5081380;28;20041;-79
2022/09/12 14:35:05;;;;;;;6.88;6.28;;;;;;;;;;5087418;28;20423;-78
2022/09/12 14:37:31;;;;;;;6.97;6.38;;;;;;;;;;5092189;28;20051;-79